sensor_id;sensor_type;location;lat;lon;timestamp;P1;durP1;ratioP1;P2;durP2;ratioP2
11823;SDS011;5969;50.780;7.726;2023-02-18T00:01:22;6.00;;;5.40;;
11823;SDS011;5969;50.780;7.726;2023-02-18T00:03:50;6.20;;;5.60;;
11823;SDS011;5969;50.780;7.726;2023-02-18T00:06:18;5.35;;;4.82;;
11823;SDS011;5969;50.780;7.726;2023-02-18T00:08:46;5.70;;;5.20;;
11823;SDS011;5969;50.780;7.726;2023-02-18T00:11:14;5.45;;;4.95;;
11823;SDS011;5969;50.780;7.726;2023-02-18T00:13:43;6.47;;;5.88;;
11823;SDS011;5969;50.780;7.726;2023-02-18T00:16:14;4.95;;;4.45;;
11823;SDS011;5969;50.780;7.726;2023-02-18T00:18:41;6.15;;;4.90;;
11823;SDS011;5969;50.780;7.726;2023-02-18T00:21:07;5.50;;;4.65;;
11823;SDS011;5969;50.780;7.726;2023-02-18T00:23:34;5.45;;;4.95;;
11823;SDS011;5969;50.780;7.726;2023-02-18T00:26:02;6.10;;;4.57;;
11823;SDS011;5969;50.780;7.726;2023-02-18T00:28:30;5.25;;;4.75;;
11823;SDS011;5969;50.780;7.726;2023-02-18T00:30:58;5.07;;;4.57;;
11823;SDS011;5969;50.780;7.726;2023-02-18T00:33:25;4.63;;;4.20;;
11823;SDS011;5969;50.780;7.726;2023-02-18T00:35:52;4.50;;;4.10;;
11823;SDS011;5969;50.780;7.726;2023-02-18T00:38:25;4.22;;;3.83;;
11823;SDS011;5969;50.780;7.726;2023-02-18T00:40:52;4.78;;;4.10;;
11823;SDS011;5969;50.780;7.726;2023-02-18T00:43:19;3.90;;;3.60;;
11823;SDS011;5969;50.780;7.726;2023-02-18T00:45:46;4.10;;;3.70;;
11823;SDS011;5969;50.780;7.726;2023-02-18T00:48:14;3.75;;;3.40;;
11823;SDS011;5969;50.780;7.726;2023-02-18T00:50:40;4.22;;;3.47;;
11823;SDS011;5969;50.780;7.726;2023-02-18T00:53:07;3.88;;;3.53;;
11823;SDS011;5969;50.780;7.726;2023-02-18T00:55:37;5.13;;;3.28;;
11823;SDS011;5969;50.780;7.726;2023-02-18T00:58:04;4.25;;;3.80;;
11823;SDS011;5969;50.780;7.726;2023-02-18T01:00:31;4.20;;;3.80;;
11823;SDS011;5969;50.780;7.726;2023-02-18T01:02:58;3.55;;;3.25;;
11823;SDS011;5969;50.780;7.726;2023-02-18T01:05:26;4.30;;;3.90;;
11823;SDS011;5969;50.780;7.726;2023-02-18T01:07:53;4.70;;;4.20;;
11823;SDS011;5969;50.780;7.726;2023-02-18T01:10:20;3.95;;;3.28;;
11823;SDS011;5969;50.780;7.726;2023-02-18T01:12:46;4.35;;;3.53;;
11823;SDS011;5969;50.780;7.726;2023-02-18T01:15:14;3.67;;;3.33;;
11823;SDS011;5969;50.780;7.726;2023-02-18T01:17:42;3.67;;;3.10;;
11823;SDS011;5969;50.780;7.726;2023-02-18T01:20:10;4.03;;;3.45;;
11823;SDS011;5969;50.780;7.726;2023-02-18T01:22:40;3.53;;;3.08;;
11823;SDS011;5969;50.780;7.726;2023-02-18T01:25:07;3.97;;;3.58;;
11823;SDS011;5969;50.780;7.726;2023-02-18T01:27:34;3.92;;;3.45;;
11823;SDS011;5969;50.780;7.726;2023-02-18T01:30:02;4.10;;;3.70;;
11823;SDS011;5969;50.780;7.726;2023-02-18T01:32:29;3.92;;;3.38;;
11823;SDS011;5969;50.780;7.726;2023-02-18T01:34:56;4.60;;;3.70;;
11823;SDS011;5969;50.780;7.726;2023-02-18T01:37:25;4.93;;;3.15;;
11823;SDS011;5969;50.780;7.726;2023-02-18T01:39:54;3.35;;;3.05;;
11823;SDS011;5969;50.780;7.726;2023-02-18T01:42:21;3.38;;;2.95;;
11823;SDS011;5969;50.780;7.726;2023-02-18T01:44:49;3.83;;;3.10;;
11823;SDS011;5969;50.780;7.726;2023-02-18T01:47:17;2.95;;;2.70;;
11823;SDS011;5969;50.780;7.726;2023-02-18T01:49:45;3.00;;;2.70;;
11823;SDS011;5969;50.780;7.726;2023-02-18T01:52:16;3.25;;;2.70;;
11823;SDS011;5969;50.780;7.726;2023-02-18T01:54:44;3.30;;;2.72;;
11823;SDS011;5969;50.780;7.726;2023-02-18T01:57:16;2.80;;;2.60;;
11823;SDS011;5969;50.780;7.726;2023-02-18T01:59:46;3.05;;;2.70;;
11823;SDS011;5969;50.780;7.726;2023-02-18T02:02:17;4.32;;;2.25;;
11823;SDS011;5969;50.780;7.726;2023-02-18T02:04:45;2.08;;;1.85;;
11823;SDS011;5969;50.780;7.726;2023-02-18T02:07:13;2.28;;;2.08;;
11823;SDS011;5969;50.780;7.726;2023-02-18T02:09:41;2.20;;;2.00;;
11823;SDS011;5969;50.780;7.726;2023-02-18T02:12:13;2.03;;;1.73;;
11823;SDS011;5969;50.780;7.726;2023-02-18T02:15:15;2.28;;;1.75;;
11823;SDS011;5969;50.780;7.726;2023-02-18T02:17:57;2.67;;;1.92;;
11823;SDS011;5969;50.780;7.726;2023-02-18T02:20:41;2.47;;;1.85;;
11823;SDS011;5969;50.780;7.726;2023-02-18T02:23:49;2.15;;;2.03;;
11823;SDS011;5969;50.780;7.726;2023-02-18T02:32:31;2.20;;;2.00;;
11823;SDS011;5969;50.780;7.726;2023-02-18T02:35:10;3.13;;;1.70;;
11823;SDS011;5969;50.780;7.726;2023-02-18T02:37:41;4.72;;;2.15;;
11823;SDS011;5969;50.780;7.726;2023-02-18T02:40:17;3.03;;;2.45;;
11823;SDS011;5969;50.780;7.726;2023-02-18T02:42:53;2.38;;;2.15;;
11823;SDS011;5969;50.780;7.726;2023-02-18T02:45:28;2.42;;;2.22;;
11823;SDS011;5969;50.780;7.726;2023-02-18T02:48:04;2.70;;;2.30;;
11823;SDS011;5969;50.780;7.726;2023-02-18T02:50:42;3.20;;;2.30;;
11823;SDS011;5969;50.780;7.726;2023-02-18T02:53:13;2.88;;;2.55;;
11823;SDS011;5969;50.780;7.726;2023-02-18T02:55:46;3.20;;;2.22;;
11823;SDS011;5969;50.780;7.726;2023-02-18T02:58:13;3.28;;;2.65;;
11823;SDS011;5969;50.780;7.726;2023-02-18T03:00:43;3.03;;;2.72;;
11823;SDS011;5969;50.780;7.726;2023-02-18T03:03:30;2.95;;;2.65;;
11823;SDS011;5969;50.780;7.726;2023-02-18T03:06:28;2.67;;;2.22;;
11823;SDS011;5969;50.780;7.726;2023-02-18T03:09:08;2.50;;;2.30;;
11823;SDS011;5969;50.780;7.726;2023-02-18T03:11:40;3.40;;;2.42;;
11823;SDS011;5969;50.780;7.726;2023-02-18T03:14:10;2.85;;;2.42;;
11823;SDS011;5969;50.780;7.726;2023-02-18T03:16:43;3.00;;;2.60;;
11823;SDS011;5969;50.780;7.726;2023-02-18T03:19:17;3.53;;;2.70;;
11823;SDS011;5969;50.780;7.726;2023-02-18T03:21:50;3.03;;;2.72;;
11823;SDS011;5969;50.780;7.726;2023-02-18T03:24:22;3.90;;;2.90;;
11823;SDS011;5969;50.780;7.726;2023-02-18T03:26:54;3.47;;;3.17;;
11823;SDS011;5969;50.780;7.726;2023-02-18T03:29:24;3.45;;;2.60;;
11823;SDS011;5969;50.780;7.726;2023-02-18T03:31:53;3.17;;;2.88;;
11823;SDS011;5969;50.780;7.726;2023-02-18T03:34:24;2.83;;;2.50;;
11823;SDS011;5969;50.780;7.726;2023-02-18T03:36:55;2.80;;;2.38;;
11823;SDS011;5969;50.780;7.726;2023-02-18T03:39:24;2.67;;;1.85;;
11823;SDS011;5969;50.780;7.726;2023-02-18T03:41:53;2.17;;;1.98;;
11823;SDS011;5969;50.780;7.726;2023-02-18T03:44:20;2.03;;;1.85;;
11823;SDS011;5969;50.780;7.726;2023-02-18T03:46:49;2.90;;;1.90;;
11823;SDS011;5969;50.780;7.726;2023-02-18T03:49:16;2.10;;;1.70;;
11823;SDS011;5969;50.780;7.726;2023-02-18T03:51:43;1.58;;;1.48;;
11823;SDS011;5969;50.780;7.726;2023-02-18T03:54:11;1.63;;;1.50;;
11823;SDS011;5969;50.780;7.726;2023-02-18T03:56:38;1.95;;;1.50;;
11823;SDS011;5969;50.780;7.726;2023-02-18T03:59:05;1.80;;;1.40;;
11823;SDS011;5969;50.780;7.726;2023-02-18T04:01:32;2.15;;;1.50;;
11823;SDS011;5969;50.780;7.726;2023-02-18T04:03:59;1.33;;;1.23;;
11823;SDS011;5969;50.780;7.726;2023-02-18T04:06:27;1.80;;;1.38;;
11823;SDS011;5969;50.780;7.726;2023-02-18T04:08:53;1.83;;;1.42;;
11823;SDS011;5969;50.780;7.726;2023-02-18T04:11:22;1.60;;;1.15;;
11823;SDS011;5969;50.780;7.726;2023-02-18T04:13:49;2.08;;;1.20;;
11823;SDS011;5969;50.780;7.726;2023-02-18T04:16:15;1.10;;;1.00;;
11823;SDS011;5969;50.780;7.726;2023-02-18T04:18:42;1.35;;;1.00;;
11823;SDS011;5969;50.780;7.726;2023-02-18T04:21:09;2.30;;;1.20;;
11823;SDS011;5969;50.780;7.726;2023-02-18T04:23:36;1.40;;;1.10;;
11823;SDS011;5969;50.780;7.726;2023-02-18T04:26:03;1.17;;;0.95;;
11823;SDS011;5969;50.780;7.726;2023-02-18T04:28:31;0.90;;;0.90;;
11823;SDS011;5969;50.780;7.726;2023-02-18T04:30:58;1.42;;;0.90;;
11823;SDS011;5969;50.780;7.726;2023-02-18T04:33:24;1.85;;;0.93;;
11823;SDS011;5969;50.780;7.726;2023-02-18T04:35:51;1.48;;;1.00;;
11823;SDS011;5969;50.780;7.726;2023-02-18T04:38:18;0.80;;;0.80;;
11823;SDS011;5969;50.780;7.726;2023-02-18T04:40:45;1.05;;;0.82;;
11823;SDS011;5969;50.780;7.726;2023-02-18T04:43:11;1.27;;;1.10;;
11823;SDS011;5969;50.780;7.726;2023-02-18T04:45:40;1.42;;;0.95;;
11823;SDS011;5969;50.780;7.726;2023-02-18T04:48:06;1.30;;;1.20;;
11823;SDS011;5969;50.780;7.726;2023-02-18T04:50:33;1.20;;;1.02;;
11823;SDS011;5969;50.780;7.726;2023-02-18T04:53:00;1.10;;;1.00;;
11823;SDS011;5969;50.780;7.726;2023-02-18T04:55:27;3.38;;;0.90;;
11823;SDS011;5969;50.780;7.726;2023-02-18T04:57:54;2.35;;;1.13;;
11823;SDS011;5969;50.780;7.726;2023-02-18T05:00:20;2.70;;;1.08;;
11823;SDS011;5969;50.780;7.726;2023-02-18T05:02:49;1.98;;;1.20;;
11823;SDS011;5969;50.780;7.726;2023-02-18T05:05:15;1.10;;;1.00;;
11823;SDS011;5969;50.780;7.726;2023-02-18T05:07:42;1.13;;;1.00;;
11823;SDS011;5969;50.780;7.726;2023-02-18T05:10:09;1.20;;;0.90;;
11823;SDS011;5969;50.780;7.726;2023-02-18T05:12:39;1.95;;;0.90;;
11823;SDS011;5969;50.780;7.726;2023-02-18T05:15:06;1.10;;;1.00;;
11823;SDS011;5969;50.780;7.726;2023-02-18T05:17:34;2.97;;;1.00;;
11823;SDS011;5969;50.780;7.726;2023-02-18T05:20:03;1.02;;;0.90;;
11823;SDS011;5969;50.780;7.726;2023-02-18T05:22:31;2.45;;;0.90;;
11823;SDS011;5969;50.780;7.726;2023-02-18T05:24:57;1.15;;;0.93;;
11823;SDS011;5969;50.780;7.726;2023-02-18T05:27:24;3.17;;;0.90;;
11823;SDS011;5969;50.780;7.726;2023-02-18T05:29:51;1.02;;;0.70;;
11823;SDS011;5969;50.780;7.726;2023-02-18T05:32:18;0.80;;;0.70;;
11823;SDS011;5969;50.780;7.726;2023-02-18T05:34:45;0.80;;;0.80;;
11823;SDS011;5969;50.780;7.726;2023-02-18T05:37:13;0.60;;;0.60;;
11823;SDS011;5969;50.780;7.726;2023-02-18T05:39:42;1.67;;;0.80;;
11823;SDS011;5969;50.780;7.726;2023-02-18T05:42:09;1.75;;;0.95;;
11823;SDS011;5969;50.780;7.726;2023-02-18T05:44:36;0.93;;;0.70;;
11823;SDS011;5969;50.780;7.726;2023-02-18T05:47:03;1.80;;;0.65;;
11823;SDS011;5969;50.780;7.726;2023-02-18T05:49:32;1.98;;;0.70;;
11823;SDS011;5969;50.780;7.726;2023-02-18T05:52:00;0.65;;;0.60;;
11823;SDS011;5969;50.780;7.726;2023-02-18T05:54:29;1.75;;;0.77;;
11823;SDS011;5969;50.780;7.726;2023-02-18T05:56:56;0.50;;;0.43;;
11823;SDS011;5969;50.780;7.726;2023-02-18T05:59:24;0.50;;;0.40;;
11823;SDS011;5969;50.780;7.726;2023-02-18T06:01:52;0.50;;;0.50;;
11823;SDS011;5969;50.780;7.726;2023-02-18T06:04:19;0.80;;;0.52;;
11823;SDS011;5969;50.780;7.726;2023-02-18T06:06:46;0.73;;;0.47;;
11823;SDS011;5969;50.780;7.726;2023-02-18T06:09:13;0.60;;;0.50;;
11823;SDS011;5969;50.780;7.726;2023-02-18T06:11:41;0.50;;;0.40;;
11823;SDS011;5969;50.780;7.726;2023-02-18T06:14:08;0.77;;;0.43;;
11823;SDS011;5969;50.780;7.726;2023-02-18T06:16:35;0.70;;;0.50;;
11823;SDS011;5969;50.780;7.726;2023-02-18T06:19:01;0.60;;;0.50;;
11823;SDS011;5969;50.780;7.726;2023-02-18T06:21:28;0.80;;;0.40;;
11823;SDS011;5969;50.780;7.726;2023-02-18T06:23:55;0.90;;;0.50;;
11823;SDS011;5969;50.780;7.726;2023-02-18T06:26:22;0.60;;;0.47;;
11823;SDS011;5969;50.780;7.726;2023-02-18T06:28:50;0.50;;;0.40;;
11823;SDS011;5969;50.780;7.726;2023-02-18T06:31:17;0.50;;;0.40;;
11823;SDS011;5969;50.780;7.726;2023-02-18T06:33:44;0.60;;;0.47;;
11823;SDS011;5969;50.780;7.726;2023-02-18T06:36:11;0.95;;;0.47;;
11823;SDS011;5969;50.780;7.726;2023-02-18T06:38:38;0.57;;;0.40;;
11823;SDS011;5969;50.780;7.726;2023-02-18T06:41:07;0.70;;;0.52;;
11823;SDS011;5969;50.780;7.726;2023-02-18T06:43:34;0.60;;;0.52;;
11823;SDS011;5969;50.780;7.726;2023-02-18T06:46:03;0.90;;;0.75;;
11823;SDS011;5969;50.780;7.726;2023-02-18T06:48:30;0.55;;;0.50;;
11823;SDS011;5969;50.780;7.726;2023-02-18T06:50:57;0.90;;;0.82;;
11823;SDS011;5969;50.780;7.726;2023-02-18T06:53:24;0.60;;;0.60;;
11823;SDS011;5969;50.780;7.726;2023-02-18T06:55:51;1.25;;;1.15;;
11823;SDS011;5969;50.780;7.726;2023-02-18T06:58:18;0.65;;;0.65;;
11823;SDS011;5969;50.780;7.726;2023-02-18T07:00:44;1.00;;;0.90;;
11823;SDS011;5969;50.780;7.726;2023-02-18T07:03:13;0.70;;;0.70;;
11823;SDS011;5969;50.780;7.726;2023-02-18T07:05:40;1.02;;;0.80;;
11823;SDS011;5969;50.780;7.726;2023-02-18T07:08:07;3.13;;;1.77;;
11823;SDS011;5969;50.780;7.726;2023-02-18T07:10:35;1.02;;;0.40;;
11823;SDS011;5969;50.780;7.726;2023-02-18T07:13:02;0.88;;;0.80;;
11823;SDS011;5969;50.780;7.726;2023-02-18T07:15:29;3.28;;;2.92;;
11823;SDS011;5969;50.780;7.726;2023-02-18T07:17:55;5.32;;;4.47;;
11823;SDS011;5969;50.780;7.726;2023-02-18T07:20:24;0.80;;;0.68;;
11823;SDS011;5969;50.780;7.726;2023-02-18T07:22:51;0.60;;;0.60;;
11823;SDS011;5969;50.780;7.726;2023-02-18T07:25:18;0.60;;;0.50;;
11823;SDS011;5969;50.780;7.726;2023-02-18T07:27:45;1.75;;;0.98;;
11823;SDS011;5969;50.780;7.726;2023-02-18T07:30:12;0.73;;;0.50;;
11823;SDS011;5969;50.780;7.726;2023-02-18T07:32:39;0.95;;;0.90;;
11823;SDS011;5969;50.780;7.726;2023-02-18T07:35:06;0.63;;;0.50;;
11823;SDS011;5969;50.780;7.726;2023-02-18T07:37:35;0.50;;;0.50;;
11823;SDS011;5969;50.780;7.726;2023-02-18T07:40:01;0.70;;;0.70;;
11823;SDS011;5969;50.780;7.726;2023-02-18T07:42:28;0.50;;;0.40;;
11823;SDS011;5969;50.780;7.726;2023-02-18T07:44:55;0.70;;;0.30;;
11823;SDS011;5969;50.780;7.726;2023-02-18T07:47:22;0.60;;;0.60;;
11823;SDS011;5969;50.780;7.726;2023-02-18T07:49:49;2.15;;;0.40;;
11823;SDS011;5969;50.780;7.726;2023-02-18T07:52:15;0.70;;;0.47;;
11823;SDS011;5969;50.780;7.726;2023-02-18T07:54:43;1.40;;;0.52;;
11823;SDS011;5969;50.780;7.726;2023-02-18T07:57:10;0.85;;;0.77;;
11823;SDS011;5969;50.780;7.726;2023-02-18T07:59:37;3.25;;;0.50;;
11823;SDS011;5969;50.780;7.726;2023-02-18T08:02:04;4.30;;;0.80;;
11823;SDS011;5969;50.780;7.726;2023-02-18T08:04:31;0.65;;;0.50;;
11823;SDS011;5969;50.780;7.726;2023-02-18T08:06:58;1.05;;;0.60;;
11823;SDS011;5969;50.780;7.726;2023-02-18T08:09:25;0.63;;;0.63;;
11823;SDS011;5969;50.780;7.726;2023-02-18T08:11:53;0.60;;;0.40;;
11823;SDS011;5969;50.780;7.726;2023-02-18T08:14:20;0.65;;;0.38;;
11823;SDS011;5969;50.780;7.726;2023-02-18T08:16:47;1.92;;;1.83;;
11823;SDS011;5969;50.780;7.726;2023-02-18T08:19:13;3.15;;;2.95;;
11823;SDS011;5969;50.780;7.726;2023-02-18T08:21:40;1.23;;;0.80;;
11823;SDS011;5969;50.780;7.726;2023-02-18T08:24:07;2.22;;;2.03;;
11823;SDS011;5969;50.780;7.726;2023-02-18T08:26:33;0.60;;;0.50;;
11823;SDS011;5969;50.780;7.726;2023-02-18T08:29:02;0.50;;;0.50;;
11823;SDS011;5969;50.780;7.726;2023-02-18T08:31:29;0.50;;;0.40;;
11823;SDS011;5969;50.780;7.726;2023-02-18T08:33:57;0.60;;;0.40;;
11823;SDS011;5969;50.780;7.726;2023-02-18T08:36:24;1.90;;;0.80;;
11823;SDS011;5969;50.780;7.726;2023-02-18T08:38:51;1.90;;;1.80;;
11823;SDS011;5969;50.780;7.726;2023-02-18T08:41:19;0.50;;;0.30;;
11823;SDS011;5969;50.780;7.726;2023-02-18T08:43:46;1.05;;;0.70;;
11823;SDS011;5969;50.780;7.726;2023-02-18T08:46:14;2.10;;;1.40;;
11823;SDS011;5969;50.780;7.726;2023-02-18T08:48:42;3.03;;;2.75;;
11823;SDS011;5969;50.780;7.726;2023-02-18T08:51:09;0.80;;;0.80;;
11823;SDS011;5969;50.780;7.726;2023-02-18T08:53:37;0.90;;;0.90;;
11823;SDS011;5969;50.780;7.726;2023-02-18T08:56:05;0.63;;;0.50;;
11823;SDS011;5969;50.780;7.726;2023-02-18T08:58:32;1.40;;;1.30;;
11823;SDS011;5969;50.780;7.726;2023-02-18T09:01:01;1.25;;;1.15;;
11823;SDS011;5969;50.780;7.726;2023-02-18T09:03:31;0.90;;;0.90;;
11823;SDS011;5969;50.780;7.726;2023-02-18T09:05:57;1.58;;;1.48;;
11823;SDS011;5969;50.780;7.726;2023-02-18T09:08:25;1.00;;;1.00;;
11823;SDS011;5969;50.780;7.726;2023-02-18T09:10:53;2.20;;;0.93;;
11823;SDS011;5969;50.780;7.726;2023-02-18T09:13:21;2.55;;;1.58;;
11823;SDS011;5969;50.780;7.726;2023-02-18T09:15:54;0.90;;;0.85;;
11823;SDS011;5969;50.780;7.726;2023-02-18T09:18:22;1.08;;;0.80;;
11823;SDS011;5969;50.780;7.726;2023-02-18T09:20:50;1.38;;;0.70;;
11823;SDS011;5969;50.780;7.726;2023-02-18T09:23:20;1.45;;;1.00;;
11823;SDS011;5969;50.780;7.726;2023-02-18T09:25:48;1.50;;;1.10;;
11823;SDS011;5969;50.780;7.726;2023-02-18T09:28:15;2.22;;;1.40;;
11823;SDS011;5969;50.780;7.726;2023-02-18T09:30:42;3.70;;;1.50;;
11823;SDS011;5969;50.780;7.726;2023-02-18T09:33:08;3.50;;;1.58;;
11823;SDS011;5969;50.780;7.726;2023-02-18T09:35:37;3.03;;;1.85;;
11823;SDS011;5969;50.780;7.726;2023-02-18T09:38:06;4.40;;;2.22;;
11823;SDS011;5969;50.780;7.726;2023-02-18T09:40:34;3.78;;;2.50;;
11823;SDS011;5969;50.780;7.726;2023-02-18T09:43:02;7.15;;;2.80;;
11823;SDS011;5969;50.780;7.726;2023-02-18T09:45:29;4.50;;;2.85;;
11823;SDS011;5969;50.780;7.726;2023-02-18T09:47:56;5.78;;;2.85;;
11823;SDS011;5969;50.780;7.726;2023-02-18T09:50:25;6.43;;;2.38;;
11823;SDS011;5969;50.780;7.726;2023-02-18T09:52:53;4.68;;;2.08;;
11823;SDS011;5969;50.780;7.726;2023-02-18T09:55:26;7.05;;;2.30;;
11823;SDS011;5969;50.780;7.726;2023-02-18T09:57:56;1.95;;;1.70;;
11823;SDS011;5969;50.780;7.726;2023-02-18T10:00:28;3.60;;;1.60;;
11823;SDS011;5969;50.780;7.726;2023-02-18T10:02:59;1.52;;;1.25;;
11823;SDS011;5969;50.780;7.726;2023-02-18T10:05:29;1.83;;;1.23;;
11823;SDS011;5969;50.780;7.726;2023-02-18T10:07:59;3.58;;;1.30;;
11823;SDS011;5969;50.780;7.726;2023-02-18T10:10:32;1.58;;;1.20;;
11823;SDS011;5969;50.780;7.726;2023-02-18T10:13:03;3.97;;;1.33;;
11823;SDS011;5969;50.780;7.726;2023-02-18T10:15:34;3.33;;;1.60;;
11823;SDS011;5969;50.780;7.726;2023-02-18T10:18:03;3.30;;;1.40;;
11823;SDS011;5969;50.780;7.726;2023-02-18T10:20:37;5.05;;;1.50;;
11823;SDS011;5969;50.780;7.726;2023-02-18T10:23:04;2.08;;;1.27;;
11823;SDS011;5969;50.780;7.726;2023-02-18T10:25:32;2.97;;;1.50;;
11823;SDS011;5969;50.780;7.726;2023-02-18T10:28:03;3.00;;;1.35;;
11823;SDS011;5969;50.780;7.726;2023-02-18T10:30:32;1.33;;;1.20;;
11823;SDS011;5969;50.780;7.726;2023-02-18T10:33:09;3.72;;;2.00;;
11823;SDS011;5969;50.780;7.726;2023-02-18T10:35:50;2.38;;;1.30;;
11823;SDS011;5969;50.780;7.726;2023-02-18T10:38:20;4.40;;;1.98;;
11823;SDS011;5969;50.780;7.726;2023-02-18T10:41:02;3.05;;;1.50;;
11823;SDS011;5969;50.780;7.726;2023-02-18T10:43:34;6.40;;;1.70;;
11823;SDS011;5969;50.780;7.726;2023-02-18T10:46:11;3.85;;;1.45;;
11823;SDS011;5969;50.780;7.726;2023-02-18T10:48:53;2.15;;;1.25;;
11823;SDS011;5969;50.780;7.726;2023-02-18T10:51:31;4.22;;;1.40;;
11823;SDS011;5969;50.780;7.726;2023-02-18T10:54:00;3.05;;;1.33;;
11823;SDS011;5969;50.780;7.726;2023-02-18T10:56:36;4.32;;;1.60;;
11823;SDS011;5969;50.780;7.726;2023-02-18T10:59:08;4.57;;;1.48;;
11823;SDS011;5969;50.780;7.726;2023-02-18T11:01:37;5.50;;;1.90;;
11823;SDS011;5969;50.780;7.726;2023-02-18T11:04:06;2.53;;;1.75;;
11823;SDS011;5969;50.780;7.726;2023-02-18T11:06:38;4.03;;;1.70;;
11823;SDS011;5969;50.780;7.726;2023-02-18T11:09:06;5.85;;;1.80;;
11823;SDS011;5969;50.780;7.726;2023-02-18T11:11:58;5.30;;;1.90;;
11823;SDS011;5969;50.780;7.726;2023-02-18T11:14:35;4.35;;;2.15;;
11823;SDS011;5969;50.780;7.726;2023-02-18T11:17:09;2.92;;;1.67;;
11823;SDS011;5969;50.780;7.726;2023-02-18T11:19:51;4.40;;;2.15;;
11823;SDS011;5969;50.780;7.726;2023-02-18T11:22:20;4.13;;;1.92;;
11823;SDS011;5969;50.780;7.726;2023-02-18T11:24:47;5.90;;;1.70;;
11823;SDS011;5969;50.780;7.726;2023-02-18T11:27:23;5.90;;;2.30;;
11823;SDS011;5969;50.780;7.726;2023-02-18T11:29:54;4.93;;;2.65;;
11823;SDS011;5969;50.780;7.726;2023-02-18T11:32:26;5.40;;;2.10;;
11823;SDS011;5969;50.780;7.726;2023-02-18T11:34:53;5.05;;;2.47;;
11823;SDS011;5969;50.780;7.726;2023-02-18T11:37:20;7.35;;;2.47;;
11823;SDS011;5969;50.780;7.726;2023-02-18T11:39:48;4.43;;;2.30;;
11823;SDS011;5969;50.780;7.726;2023-02-18T11:42:18;3.75;;;2.22;;
11823;SDS011;5969;50.780;7.726;2023-02-18T11:44:48;7.18;;;2.67;;
11823;SDS011;5969;50.780;7.726;2023-02-18T11:47:22;5.57;;;2.70;;
11823;SDS011;5969;50.780;7.726;2023-02-18T11:50:02;5.55;;;2.75;;
11823;SDS011;5969;50.780;7.726;2023-02-18T11:52:45;6.25;;;2.72;;
11823;SDS011;5969;50.780;7.726;2023-02-18T11:55:14;4.35;;;2.70;;
11823;SDS011;5969;50.780;7.726;2023-02-18T11:57:44;5.65;;;3.00;;
11823;SDS011;5969;50.780;7.726;2023-02-18T12:00:19;4.78;;;2.90;;
11823;SDS011;5969;50.780;7.726;2023-02-18T12:02:49;3.95;;;2.90;;
11823;SDS011;5969;50.780;7.726;2023-02-18T12:05:18;7.10;;;3.80;;
11823;SDS011;5969;50.780;7.726;2023-02-18T12:07:49;8.00;;;3.10;;
11823;SDS011;5969;50.780;7.726;2023-02-18T12:10:18;5.75;;;3.03;;
11823;SDS011;5969;50.780;7.726;2023-02-18T12:12:52;4.32;;;2.85;;
11823;SDS011;5969;50.780;7.726;2023-02-18T12:15:28;4.03;;;2.80;;
11823;SDS011;5969;50.780;7.726;2023-02-18T12:18:07;7.50;;;3.42;;
11823;SDS011;5969;50.780;7.726;2023-02-18T12:20:58;6.55;;;3.17;;
11823;SDS011;5969;50.780;7.726;2023-02-18T12:23:42;4.72;;;2.67;;
11823;SDS011;5969;50.780;7.726;2023-02-18T12:26:21;3.47;;;2.65;;
11823;SDS011;5969;50.780;7.726;2023-02-18T12:28:55;4.13;;;2.78;;
11823;SDS011;5969;50.780;7.726;2023-02-18T12:31:39;4.30;;;2.80;;
11823;SDS011;5969;50.780;7.726;2023-02-18T12:34:31;3.17;;;2.58;;
11823;SDS011;5969;50.780;7.726;2023-02-18T12:37:13;6.75;;;2.60;;
11823;SDS011;5969;50.780;7.726;2023-02-18T12:40:02;5.38;;;3.05;;
11823;SDS011;5969;50.780;7.726;2023-02-18T12:42:48;3.15;;;2.45;;
11823;SDS011;5969;50.780;7.726;2023-02-18T12:45:28;2.78;;;2.03;;
11823;SDS011;5969;50.780;7.726;2023-02-18T12:48:13;2.67;;;2.03;;
11823;SDS011;5969;50.780;7.726;2023-02-18T12:50:56;3.45;;;1.98;;
11823;SDS011;5969;50.780;7.726;2023-02-18T12:53:40;4.47;;;2.13;;
11823;SDS011;5969;50.780;7.726;2023-02-18T12:59:16;2.28;;;1.98;;
11823;SDS011;5969;50.780;7.726;2023-02-18T13:01:59;2.40;;;1.77;;
11823;SDS011;5969;50.780;7.726;2023-02-18T13:04:40;1.50;;;1.40;;
11823;SDS011;5969;50.780;7.726;2023-02-18T13:10:26;1.25;;;1.15;;
11823;SDS011;5969;50.780;7.726;2023-02-18T13:13:15;3.78;;;1.80;;
11823;SDS011;5969;50.780;7.726;2023-02-18T13:15:45;1.60;;;1.50;;
11823;SDS011;5969;50.780;7.726;2023-02-18T13:18:15;1.40;;;1.27;;
11823;SDS011;5969;50.780;7.726;2023-02-18T13:20:48;2.10;;;1.40;;
11823;SDS011;5969;50.780;7.726;2023-02-18T13:23:18;2.33;;;1.42;;
11823;SDS011;5969;50.780;7.726;2023-02-18T13:25:47;1.48;;;1.38;;
11823;SDS011;5969;50.780;7.726;2023-02-18T13:28:19;3.30;;;1.20;;
11823;SDS011;5969;50.780;7.726;2023-02-18T13:30:51;1.38;;;1.27;;
11823;SDS011;5969;50.780;7.726;2023-02-18T13:33:30;1.60;;;1.20;;
11823;SDS011;5969;50.780;7.726;2023-02-18T13:36:05;1.88;;;1.45;;
11823;SDS011;5969;50.780;7.726;2023-02-18T13:38:47;2.17;;;1.50;;
11823;SDS011;5969;50.780;7.726;2023-02-18T13:41:20;2.40;;;1.30;;
11823;SDS011;5969;50.780;7.726;2023-02-18T13:43:47;1.88;;;1.50;;
11823;SDS011;5969;50.780;7.726;2023-02-18T13:46:15;2.17;;;1.30;;
11823;SDS011;5969;50.780;7.726;2023-02-18T13:48:45;2.05;;;1.60;;
11823;SDS011;5969;50.780;7.726;2023-02-18T13:51:15;2.15;;;1.40;;
11823;SDS011;5969;50.780;7.726;2023-02-18T13:53:52;1.30;;;1.20;;
11823;SDS011;5969;50.780;7.726;2023-02-18T13:56:26;1.30;;;1.20;;
11823;SDS011;5969;50.780;7.726;2023-02-18T13:58:54;1.40;;;1.23;;
11823;SDS011;5969;50.780;7.726;2023-02-18T14:07:37;1.33;;;1.23;;
11823;SDS011;5969;50.780;7.726;2023-02-18T14:10:25;1.48;;;1.10;;
11823;SDS011;5969;50.780;7.726;2023-02-18T14:16:05;1.10;;;1.00;;
11823;SDS011;5969;50.780;7.726;2023-02-18T14:21:37;1.20;;;1.10;;
11823;SDS011;5969;50.780;7.726;2023-02-18T14:24:06;1.30;;;1.20;;
11823;SDS011;5969;50.780;7.726;2023-02-18T14:26:36;1.25;;;1.10;;
11823;SDS011;5969;50.780;7.726;2023-02-18T14:29:13;1.20;;;1.10;;
11823;SDS011;5969;50.780;7.726;2023-02-18T14:31:48;1.45;;;1.20;;
11823;SDS011;5969;50.780;7.726;2023-02-18T14:37:24;1.33;;;1.23;;
11823;SDS011;5969;50.780;7.726;2023-02-18T14:40:21;1.38;;;1.10;;
11823;SDS011;5969;50.780;7.726;2023-02-18T14:43:00;1.25;;;1.10;;
11823;SDS011;5969;50.780;7.726;2023-02-18T14:45:36;2.13;;;1.08;;
11823;SDS011;5969;50.780;7.726;2023-02-18T14:48:36;1.77;;;1.42;;
11823;SDS011;5969;50.780;7.726;2023-02-18T14:51:16;1.95;;;1.50;;
11823;SDS011;5969;50.780;7.726;2023-02-18T14:53:47;1.50;;;1.40;;
11823;SDS011;5969;50.780;7.726;2023-02-18T14:56:16;1.40;;;1.30;;
11823;SDS011;5969;50.780;7.726;2023-02-18T14:58:46;1.73;;;1.63;;
11823;SDS011;5969;50.780;7.726;2023-02-18T15:01:17;1.70;;;1.60;;
11823;SDS011;5969;50.780;7.726;2023-02-18T15:03:46;1.65;;;1.55;;
11823;SDS011;5969;50.780;7.726;2023-02-18T15:06:24;1.90;;;1.80;;
11823;SDS011;5969;50.780;7.726;2023-02-18T15:08:55;2.20;;;2.00;;
11823;SDS011;5969;50.780;7.726;2023-02-18T15:11:23;2.22;;;2.03;;
11823;SDS011;5969;50.780;7.726;2023-02-18T15:13:54;1.67;;;1.58;;
11823;SDS011;5969;50.780;7.726;2023-02-18T15:16:23;2.38;;;2.00;;
11823;SDS011;5969;50.780;7.726;2023-02-18T15:18:55;2.10;;;1.90;;
11823;SDS011;5969;50.780;7.726;2023-02-18T15:21:25;2.22;;;2.03;;
11823;SDS011;5969;50.780;7.726;2023-02-18T15:23:54;2.35;;;2.10;;
11823;SDS011;5969;50.780;7.726;2023-02-18T15:26:31;2.70;;;1.90;;
11823;SDS011;5969;50.780;7.726;2023-02-18T15:28:58;2.30;;;1.95;;
11823;SDS011;5969;50.780;7.726;2023-02-18T15:31:28;3.22;;;2.17;;
11823;SDS011;5969;50.780;7.726;2023-02-18T15:33:56;2.70;;;2.50;;
11823;SDS011;5969;50.780;7.726;2023-02-18T15:36:24;2.50;;;2.30;;
11823;SDS011;5969;50.780;7.726;2023-02-18T15:38:51;1.85;;;1.75;;
11823;SDS011;5969;50.780;7.726;2023-02-18T15:41:19;2.40;;;2.15;;
11823;SDS011;5969;50.780;7.726;2023-02-18T15:43:53;2.30;;;2.03;;
11823;SDS011;5969;50.780;7.726;2023-02-18T15:46:22;2.20;;;2.00;;
11823;SDS011;5969;50.780;7.726;2023-02-18T15:48:50;2.53;;;2.10;;